Terminal Aerodrome Forecast
Issued by NWS

Home | Current Version | Previous Version | Text Only | Print | Product List | Glossary On
Versions: 1 2 3 4 5 6 7 8 9 10 11 12 13 14 15 16 17 18 19 20 21 22 23 24
000
FTUS45 KREV 032338
TAFTVL
TAF
KTVL 032338Z 0400/0424 20010G18KT P6SM SCT090 BKN180
     FM040200 19006KT P6SM BKN090 OVC180
     FM041600 04005KT P6SM VCSH SCT040 BKN070 OVC140
     FM041900 03007KT P6SM -SHRA VCTS SCT025 BKN040CB
      TEMPO 0420/0424 3SM TSRA BKN025CB=

USA.gov is the U.S. government's official web portal to all federal, state and local government web resources and services.